Time;durP1;ratioP1;P1;durP2;ratioP2;P2;SDS_P1;SDS_P2;PMS_P1;PMS_P2;Temp;Humidity;BMP_temperature;BMP_pressure;BME280_temperature;BME280_humidity;BME280_pressure;Samples;Min_cycle;Max_cycle;Signal;HPM_P1;HPM_P2
2021/10/12 00:02:18;;;;;;;16.17;8.85;;;;;;;12.85;47.72;99951.81;4467824;32;35001;-47
2021/10/12 00:04:46;;;;;;;15.75;8.15;;;;;;;12.97;46.92;99949.97;4467290;32;34451;-47
2021/10/12 00:07:13;;;;;;;13.68;8.35;;;;;;;12.69;47.13;99952.75;4467801;32;33280;-46
2021/10/12 00:09:41;;;;;;;14.27;8.63;;;;;;;12.77;47.21;99948.37;4466707;32;33771;-47
2021/10/12 00:12:08;;;;;;;12.93;8.57;;;;;;;12.68;47.75;99947.56;4467728;32;34906;-46
2021/10/12 00:14:36;;;;;;;14.70;9.63;;;;;;;12.56;47.32;99945.91;4467982;32;35377;-46
2021/10/12 00:17:03;;;;;;;14.65;9.38;;;;;;;12.56;47.22;99945.91;4467556;32;34436;-50
2021/10/12 00:19:31;;;;;;;15.32;9.63;;;;;;;12.53;47.51;99938.06;4467924;32;33896;-46
2021/10/12 00:21:58;;;;;;;15.50;9.68;;;;;;;12.46;48.00;99941.59;4467671;32;34547;-47
2021/10/12 00:24:26;;;;;;;18.90;10.00;;;;;;;12.15;48.60;99940.87;4467708;32;34394;-46
2021/10/12 00:26:53;;;;;;;21.17;10.07;;;;;;;12.40;48.34;99935.56;4467901;32;33368;-47
2021/10/12 00:29:22;;;;;;;19.67;10.73;;;;;;;12.49;48.30;99936.38;4467583;32;33771;-46
2021/10/12 00:31:49;;;;;;;17.95;10.90;;;;;;;12.42;48.71;99933.81;4466317;32;35513;-46
2021/10/12 00:34:18;;;;;;;19.17;11.57;;;;;;;12.50;48.42;99926.81;4467858;32;34475;-47
2021/10/12 00:36:46;;;;;;;21.33;12.05;;;;;;;12.44;49.09;99932.03;4467571;32;33486;-46
2021/10/12 00:39:16;;;;;;;20.48;11.80;;;;;;;12.50;48.81;99922.47;4466535;32;33635;-47
2021/10/12 00:41:44;;;;;;;20.12;12.30;;;;;;;12.66;48.43;99912.78;4467741;32;34749;-47
2021/10/12 00:44:12;;;;;;;19.55;12.98;;;;;;;12.71;48.70;99919.72;4467627;32;34429;-46
2021/10/12 00:46:40;;;;;;;23.00;12.82;;;;;;;12.67;48.81;99917.13;4467364;32;33591;-49
2021/10/12 00:49:07;;;;;;;21.87;12.70;;;;;;;12.60;49.30;99908.47;4467355;32;33762;-46
2021/10/12 00:51:36;;;;;;;23.10;12.80;;;;;;;12.67;48.49;99909.31;4467074;32;34905;-47
2021/10/12 00:54:03;;;;;;;21.87;13.27;;;;;;;12.29;50.21;99908.69;4467213;32;35030;-46
2021/10/12 00:56:31;;;;;;;22.02;13.73;;;;;;;12.20;50.44;99906.97;4467190;32;34006;-48
2021/10/12 00:58:58;;;;;;;21.02;13.32;;;;;;;12.36;49.63;99907.75;4466975;32;33965;-46
2021/10/12 01:01:25;;;;;;;26.85;13.70;;;;;;;12.32;50.66;99901.69;4482904;32;35405;-46
2021/10/12 01:03:53;;;;;;;26.35;14.48;;;;;;;12.45;50.16;99902.50;4483192;32;35011;-47
2021/10/12 01:06:21;;;;;;;23.20;14.75;;;;;;;12.50;50.37;99901.59;4483477;32;34511;-46
2021/10/12 01:08:49;;;;;;;23.23;14.25;;;;;;;12.27;51.05;99895.63;4483160;32;34919;-48
2021/10/12 01:11:17;;;;;;;25.65;14.82;;;;;;;12.51;50.82;99894.59;4483149;32;35654;-47
2021/10/12 01:13:45;;;;;;;25.75;15.98;;;;;;;12.48;50.78;99892.88;4483031;32;34261;-47
2021/10/12 01:16:14;;;;;;;25.88;16.40;;;;;;;12.16;51.51;99894.81;4467296;32;34157;-47
2021/10/12 01:19:05;;;;;;;26.50;16.35;;;;;;;12.34;51.30;99893.87;4482875;32;33820;-48
2021/10/12 01:21:44;;;;;;;22.77;15.02;;;;;;;12.29;51.37;99896.47;4482904;32;34723;-46
2021/10/12 01:24:12;;;;;;;27.45;16.60;;;;;;;12.31;51.42;99893.87;4482890;32;35088;-47
2021/10/12 01:26:40;;;;;;;27.05;15.98;;;;;;;12.31;51.53;99889.53;4483102;32;33239;-48
2021/10/12 01:29:10;;;;;;;25.33;16.45;;;;;;;12.22;51.99;99900.00;4469385;32;33925;-46
2021/10/12 01:31:38;;;;;;;27.25;16.85;;;;;;;12.31;51.45;99896.50;4483425;32;34910;-47
2021/10/12 01:34:18;;;;;;;28.30;16.40;;;;;;;12.42;51.71;99887.72;4483344;32;35106;-49
2021/10/12 01:36:46;;;;;;;26.58;16.30;;;;;;;12.45;51.44;99885.09;4469195;32;33422;-47
2021/10/12 01:39:15;;;;;;;28.33;17.12;;;;;;;12.55;51.71;99889.34;4483478;32;33837;-47
2021/10/12 01:41:42;;;;;;;23.90;15.73;;;;;;;12.35;51.67;99891.25;4483077;32;34782;-51
2021/10/12 01:44:12;;;;;;;27.50;16.55;;;;;;;12.39;51.71;99879.03;4469092;32;35325;-46
2021/10/12 01:46:39;;;;;;;26.73;16.73;;;;;;;12.36;51.66;99885.13;4483138;32;34086;-46
2021/10/12 01:49:07;;;;;;;28.40;17.17;;;;;;;12.41;51.45;99878.16;4483109;32;34258;-46
2021/10/12 01:51:36;;;;;;;30.92;17.48;;;;;;;12.40;51.80;99871.22;4482882;32;35008;-49
2021/10/12 01:54:17;;;;;;;26.92;16.90;;;;;;;12.30;52.13;99866.06;4482792;32;34804;-47
2021/10/12 01:56:46;;;;;;;26.67;16.20;;;;;;;12.41;51.98;99870.31;4482970;32;34310;-46
2021/10/12 01:59:14;;;;;;;26.12;16.35;;;;;;;12.41;52.06;99874.69;4482886;32;34631;-48
2021/10/12 02:01:42;;;;;;;30.10;17.08;;;;;;;12.49;52.28;99863.31;4482697;32;35834;-49
2021/10/12 02:04:10;;;;;;;26.80;16.60;;;;;;;12.46;51.84;99860.72;4482647;32;35047;-46
2021/10/12 02:06:38;;;;;;;27.42;16.95;;;;;;;12.21;52.74;99853.94;4468806;32;33804;-47
2021/10/12 02:09:06;;;;;;;26.58;16.70;;;;;;;12.28;52.77;99867.81;4483175;32;33800;-47
2021/10/12 02:11:33;;;;;;;28.98;17.50;;;;;;;12.26;53.04;99869.56;4482605;32;35668;-46
2021/10/12 02:14:01;;;;;;;27.02;16.67;;;;;;;12.43;52.62;99872.94;4482772;32;35175;-47
2021/10/12 02:16:28;;;;;;;27.87;17.05;;;;;;;12.49;52.45;99867.66;4482914;32;34365;-46
2021/10/12 02:18:56;;;;;;;26.95;16.87;;;;;;;12.51;51.94;99858.97;4483148;32;34618;-47
2021/10/12 02:21:23;;;;;;;29.77;17.37;;;;;;;12.54;52.29;99860.69;4482608;32;35759;-46
2021/10/12 02:23:51;;;;;;;30.33;17.37;;;;;;;12.37;52.67;99862.53;4482506;32;35528;-46
2021/10/12 02:26:18;;;;;;;29.08;17.52;;;;;;;12.38;52.76;99861.66;4482276;32;33330;-46
2021/10/12 02:28:46;;;;;;;28.58;17.48;;;;;;;12.22;53.14;99863.50;4483863;32;34304;-47
2021/10/12 02:31:14;;;;;;;29.05;17.40;;;;;;;12.36;52.71;99866.03;4470099;32;35608;-47
2021/10/12 02:33:42;;;;;;;28.05;16.98;;;;;;;11.96;53.95;99865.38;4484403;32;35169;-46
2021/10/12 02:36:09;;;;;;;28.38;17.60;;;;;;;11.81;54.37;99866.31;4484484;32;34102;-46
2021/10/12 02:38:37;;;;;;;28.62;17.37;;;;;;;12.02;53.93;99863.63;4484184;32;33932;-47
2021/10/12 02:41:05;;;;;;;27.17;18.17;;;;;;;11.82;54.12;99870.66;4484176;32;34937;-46
2021/10/12 02:43:32;;;;;;;31.83;17.85;;;;;;;11.67;54.50;99875.03;4484196;32;35222;-47
2021/10/12 02:46:00;;;;;;;28.92;17.35;;;;;;;11.67;54.68;99862.84;4470411;32;34241;-46
2021/10/12 02:48:28;;;;;;;27.50;17.60;;;;;;;11.67;54.49;99872.44;4484007;32;33753;-50
2021/10/12 02:50:56;;;;;;;29.25;18.42;;;;;;;11.68;54.74;99874.19;4484244;32;35501;-47
2021/10/12 02:53:23;;;;;;;30.50;18.15;;;;;;;11.63;54.84;99873.28;4484054;32;34205;-49
2021/10/12 02:55:51;;;;;;;28.15;17.60;;;;;;;11.60;54.99;99868.09;4484220;32;34400;-47
2021/10/12 02:58:18;;;;;;;26.12;17.37;;;;;;;11.64;55.07;99869.81;4483984;32;34103;-47
2021/10/12 03:00:46;;;;;;;27.77;17.77;;;;;;;11.46;55.49;99865.53;4484405;32;35726;-47
2021/10/12 03:03:14;;;;;;;26.83;17.62;;;;;;;11.48;55.58;99876.84;4483929;32;34176;-46
2021/10/12 03:05:45;;;;;;;27.98;17.80;;;;;;;11.47;55.49;99875.97;4483864;32;34306;-48
2021/10/12 03:08:13;;;;;;;30.42;17.98;;;;;;;11.50;55.49;99873.31;4483661;32;34699;-47
2021/10/12 03:10:41;;;;;;;33.45;18.45;;;;;;;11.19;56.35;99868.19;4483829;32;35764;-47
2021/10/12 03:13:08;;;;;;;29.48;18.52;;;;;;;11.29;56.23;99873.38;4483786;32;35212;-51
2021/10/12 03:15:37;;;;;;;30.90;19.42;;;;;;;11.53;55.51;99873.31;4483936;32;33763;-46
2021/10/12 03:18:04;;;;;;;29.08;18.20;;;;;;;11.46;55.86;99874.22;4483688;32;34650;-47
2021/10/12 03:20:32;;;;;;;28.02;17.55;;;;;;;11.06;57.13;99875.16;4484157;32;35868;-47
2021/10/12 03:22:59;;;;;;;30.75;18.62;;;;;;;11.35;56.26;99875.97;4483729;32;34181;-46
2021/10/12 03:25:27;;;;;;;33.08;18.60;;;;;;;11.41;56.07;99881.16;4469774;32;34335;-46
2021/10/12 03:27:54;;;;;;;30.17;18.17;;;;;;;11.37;56.07;99875.97;4483357;32;34168;-47
2021/10/12 03:30:22;;;;;;;32.22;18.37;;;;;;;11.42;55.82;99872.50;4483680;32;34826;-46
2021/10/12 03:32:49;;;;;;;28.20;17.98;;;;;;;11.01;57.24;99876.88;4483616;32;34232;-46
2021/10/12 03:35:25;;;;;;;31.52;18.90;;;;;;;11.31;56.66;99868.19;4484628;32;34453;-48
2021/10/12 03:37:52;;;;;;;31.12;18.85;;;;;;;11.23;56.59;99868.19;4484324;32;33995;-45
2021/10/12 03:40:20;;;;;;;30.77;18.12;;;;;;;11.26;56.25;99864.72;4482986;32;35637;-49
2021/10/12 03:42:47;;;;;;;26.30;17.02;;;;;;;11.40;56.18;99873.38;4484023;32;34411;-48
2021/10/12 03:45:15;;;;;;;30.58;18.90;;;;;;;11.51;55.87;99868.97;4484401;32;34709;-49
2021/10/12 03:47:43;;;;;;;30.27;17.75;;;;;;;11.39;56.00;99875.09;4484967;32;33942;-48
2021/10/12 03:50:10;;;;;;;33.00;19.05;;;;;;;11.31;56.17;99870.78;4485311;32;34720;-48
2021/10/12 03:52:38;;;;;;;30.10;17.77;;;;;;;11.47;55.95;99881.16;4485230;32;34448;-48
2021/10/12 03:55:07;;;;;;;29.55;18.17;;;;;;;11.56;55.59;99881.13;4485103;32;33890;-48
2021/10/12 03:57:35;;;;;;;32.70;18.30;;;;;;;11.50;55.60;99880.28;4485145;32;34835;-48
2021/10/12 04:00:04;;;;;;;28.62;18.08;;;;;;;11.46;55.56;99878.53;4485131;32;35543;-48
2021/10/12 04:02:32;;;;;;;30.20;18.17;;;;;;;11.39;55.67;99867.28;4484466;32;35206;-48
2021/10/12 04:04:59;;;;;;;34.97;19.75;;;;;;;11.24;56.34;99869.06;4485056;32;33724;-48
2021/10/12 04:07:28;;;;;;;36.33;20.58;;;;;;;11.14;56.69;99867.34;4484972;32;34708;-48
2021/10/12 04:09:56;;;;;;;36.22;19.45;;;;;;;11.32;56.39;99868.16;4484816;32;34711;-48
2021/10/12 04:12:23;;;;;;;31.37;19.12;;;;;;;11.29;56.29;99870.78;4484973;32;34138;-49
2021/10/12 04:14:50;;;;;;;30.25;19.62;;;;;;;10.95;57.13;99868.22;4484959;32;34397;-48
2021/10/12 04:17:18;;;;;;;30.98;18.55;;;;;;;11.14;56.98;99850.00;4484916;32;33747;-47
2021/10/12 04:19:46;;;;;;;28.77;18.05;;;;;;;11.17;56.90;99855.16;4485099;32;35769;-48
2021/10/12 04:22:14;;;;;;;29.30;18.17;;;;;;;11.20;56.87;99849.09;4484719;32;35311;-48
2021/10/12 04:24:42;;;;;;;31.73;18.02;;;;;;;11.19;56.61;99849.97;4485131;32;33406;-47
2021/10/12 04:27:09;;;;;;;28.85;18.70;;;;;;;11.35;56.12;99856.87;4470780;32;33928;-47
2021/10/12 04:29:36;;;;;;;28.87;18.10;;;;;;;11.35;56.42;99856.87;4484654;32;35037;-48
2021/10/12 04:32:05;;;;;;;26.87;17.37;;;;;;;11.24;56.80;99853.44;4484614;32;35133;-47
2021/10/12 04:34:32;;;;;;;32.60;19.10;;;;;;;10.93;57.52;99854.34;4484520;32;33506;-47
2021/10/12 04:37:00;;;;;;;31.40;18.70;;;;;;;11.24;56.89;99856.91;4484916;32;34807;-50
2021/10/12 04:39:30;;;;;;;28.10;17.75;;;;;;;10.72;58.24;99857.84;4484728;32;35710;-48
2021/10/12 04:41:58;;;;;;;29.25;18.42;;;;;;;10.84;57.69;99850.00;4484629;32;34190;-47
2021/10/12 04:44:26;;;;;;;26.15;16.90;;;;;;;11.05;57.22;99846.53;4470523;32;33858;-54
2021/10/12 04:46:54;;;;;;;28.05;18.30;;;;;;;11.07;56.87;99843.06;4484607;32;34129;-47
2021/10/12 04:49:22;;;;;;;26.92;18.20;;;;;;;10.97;57.32;99840.47;4484648;32;34983;-47
2021/10/12 04:51:49;;;;;;;30.52;17.95;;;;;;;11.10;56.83;99842.19;4484141;32;34122;-48
2021/10/12 04:54:17;;;;;;;28.05;18.60;;;;;;;10.89;57.36;99843.06;4484549;32;33351;-47
2021/10/12 04:56:44;;;;;;;29.80;18.87;;;;;;;10.76;58.08;99843.94;4484475;32;34742;-47
2021/10/12 04:59:12;;;;;;;36.75;19.75;;;;;;;10.42;59.19;99850.00;4484340;32;35363;-47
2021/10/12 05:01:39;;;;;;;28.77;18.83;;;;;;;10.63;58.68;99843.06;4484537;32;34259;-48
2021/10/12 05:04:07;;;;;;;35.53;19.90;;;;;;;10.51;58.98;99850.88;4484475;32;34287;-47
2021/10/12 05:06:34;;;;;;;28.42;18.60;;;;;;;10.58;58.69;99836.13;4484231;32;34694;-47
2021/10/12 05:09:03;;;;;;;32.90;20.10;;;;;;;10.66;58.52;99844.81;4484311;32;34707;-47
2021/10/12 05:11:31;;;;;;;29.75;18.95;;;;;;;10.48;59.23;99834.41;4470537;32;35164;-47
2021/10/12 05:13:58;;;;;;;30.75;19.25;;;;;;;10.35;59.53;99838.72;4484531;32;33337;-49
2021/10/12 05:16:28;;;;;;;30.40;19.52;;;;;;;10.29;59.76;99846.53;4484576;32;33964;-47
2021/10/12 05:18:58;;;;;;;29.00;18.55;;;;;;;10.56;58.96;99840.47;4484514;32;35063;-47
2021/10/12 05:21:28;;;;;;;28.30;17.83;;;;;;;10.53;58.98;99841.34;4470461;32;34390;-47
2021/10/12 05:23:55;;;;;;;29.40;17.90;;;;;;;10.49;59.10;99846.53;4484383;32;33469;-47
2021/10/12 05:26:23;;;;;;;31.90;17.95;;;;;;;10.56;58.78;99843.94;4484241;32;34002;-47
2021/10/12 05:28:52;;;;;;;34.63;20.10;;;;;;;10.35;59.57;99854.31;4470185;32;35479;-48
2021/10/12 05:31:20;;;;;;;31.52;18.25;;;;;;;10.22;60.21;99856.91;4484222;32;34831;-47
2021/10/12 05:33:48;;;;;;;30.45;18.55;;;;;;;10.40;59.42;99856.94;4484146;32;33479;-47
2021/10/12 05:36:17;;;;;;;30.10;19.25;;;;;;;10.37;59.37;99852.59;4484268;32;34021;-48
2021/10/12 05:38:46;;;;;;;30.58;18.48;;;;;;;10.37;59.60;99851.72;4483928;32;34801;-47
2021/10/12 05:41:13;;;;;;;31.58;18.05;;;;;;;10.61;58.82;99843.94;4484030;32;34916;-50
2021/10/12 05:43:41;;;;;;;30.70;18.75;;;;;;;10.81;58.17;99850.03;4484129;32;33430;-48
2021/10/12 05:46:09;;;;;;;31.85;18.67;;;;;;;10.68;58.19;99853.47;4484079;32;34135;-47
2021/10/12 05:48:36;;;;;;;30.77;19.33;;;;;;;10.56;58.55;99853.47;4484008;32;34756;-48
2021/10/12 05:51:05;;;;;;;30.20;18.70;;;;;;;10.72;58.19;99850.88;4484050;32;35328;-47
2021/10/12 05:53:48;;;;;;;33.88;20.00;;;;;;;10.82;57.98;99851.75;4484170;32;34346;-47
2021/10/12 05:56:56;;;;;;;35.17;18.20;;;;;;;10.65;58.44;99854.34;4483874;32;33859;-47
2021/10/12 05:59:09;;;;;;;34.47;19.48;;;;;;;10.81;58.40;99858.72;4482072;32;35556;-48
2021/10/12 06:01:40;;;;;;;33.38;18.27;;;;;;;10.71;58.45;99863.91;4483371;32;34483;-47
2021/10/12 06:04:09;;;;;;;34.03;20.23;;;;;;;10.85;58.26;99856.94;4483491;32;33527;-49
2021/10/12 06:06:36;;;;;;;32.15;18.45;;;;;;;11.07;57.93;99863.87;4483679;32;34624;-47
2021/10/12 06:09:04;;;;;;;33.88;18.42;;;;;;;11.45;56.86;99867.28;4469763;32;34916;-47
2021/10/12 06:11:36;;;;;;;29.42;18.77;;;;;;;11.57;56.48;99869.84;4483761;32;34267;-52
2021/10/12 06:14:03;;;;;;;32.22;19.92;;;;;;;11.80;56.04;99869.78;4483898;32;33437;-47
2021/10/12 06:16:31;;;;;;;26.58;17.33;;;;;;;12.05;55.26;99871.41;4483816;32;33969;-48
2021/10/12 06:18:59;;;;;;;27.90;18.20;;;;;;;12.40;54.31;99871.22;4483873;32;35300;-47
2021/10/12 06:21:26;;;;;;;26.83;17.55;;;;;;;12.52;53.11;99868.53;4483669;32;35128;-47
2021/10/12 06:23:53;;;;;;;28.67;17.23;;;;;;;12.66;52.54;99858.84;4483861;32;33314;-48
2021/10/12 06:26:21;;;;;;;28.95;17.37;;;;;;;12.86;52.74;99867.38;4483667;32;33640;-47
2021/10/12 06:28:48;;;;;;;34.00;18.85;;;;;;;13.00;52.56;99871.63;4483546;32;34923;-48
2021/10/12 06:31:16;;;;;;;27.85;18.80;;;;;;;13.12;52.37;99863.72;4483529;32;34690;-50
2021/10/12 06:33:44;;;;;;;28.38;17.20;;;;;;;13.10;51.49;99862.88;4483781;32;33578;-47
2021/10/12 06:36:11;;;;;;;27.73;17.15;;;;;;;13.22;51.74;99866.22;4483595;32;33584;-48
2021/10/12 06:38:38;;;;;;;27.75;16.83;;;;;;;13.32;51.66;99867.00;4483495;32;34904;-49
2021/10/12 06:41:06;;;;;;;31.45;18.50;;;;;;;13.30;51.37;99871.37;4483375;32;34193;-48
2021/10/12 06:43:34;;;;;;;27.75;17.65;;;;;;;13.26;50.82;99869.69;4483397;32;33715;-48
2021/10/12 06:46:01;;;;;;;31.33;18.37;;;;;;;13.36;50.60;99864.31;4483329;32;34680;-48
2021/10/12 06:48:29;;;;;;;32.58;19.45;;;;;;;13.24;51.32;99866.22;4483378;32;35612;-51
2021/10/12 06:50:56;;;;;;;34.17;19.50;;;;;;;13.01;51.97;99862.91;4483290;32;34161;-48
2021/10/12 06:53:46;;;;;;;26.33;18.05;;;;;;;13.08;51.53;99854.16;4483396;32;34309;-47
2021/10/12 06:56:13;;;;;;;26.33;18.60;;;;;;;12.89;52.46;99859.53;4469042;32;33435;-47
2021/10/12 06:58:41;;;;;;;30.83;18.25;;;;;;;13.02;52.79;99855.06;4483318;32;34943;-47
2021/10/12 07:01:23;;;;;;;29.90;19.75;;;;;;;13.34;51.27;99863.47;4483011;32;34984;-49
2021/10/12 07:03:51;;;;;;;26.60;17.85;;;;;;;13.42;51.79;99858.19;4483205;32;33624;-48
2021/10/12 07:06:18;;;;;;;27.83;18.40;;;;;;;13.51;52.12;99861.56;4468934;32;33730;-48
2021/10/12 07:08:46;;;;;;;28.73;17.55;;;;;;;13.38;51.77;99859.94;4456157;32;35107;-48
2021/10/12 07:11:13;;;;;;;31.12;19.25;;;;;;;13.25;51.78;99865.31;4483101;32;34225;-48
2021/10/12 07:13:41;;;;;;;30.37;18.65;;;;;;;13.32;51.29;99861.75;4483556;32;34394;-47
2021/10/12 07:16:08;;;;;;;28.23;18.33;;;;;;;12.73;52.93;99857.06;4484993;32;33845;-47
2021/10/12 07:18:36;;;;;;;30.60;18.92;;;;;;;12.85;53.24;99862.19;4484958;32;35023;-47
2021/10/12 07:21:03;;;;;;;29.77;17.92;;;;;;;12.93;53.19;99857.78;4484928;32;34184;-48
2021/10/12 07:23:31;;;;;;;29.17;18.90;;;;;;;12.95;53.04;99860.34;4484395;32;33654;-47
2021/10/12 07:25:58;;;;;;;30.90;18.33;;;;;;;13.15;52.76;99859.31;4484508;32;34745;-48
2021/10/12 07:28:25;;;;;;;26.23;18.48;;;;;;;13.08;53.04;99857.66;4483763;32;34929;-47
2021/10/12 07:30:53;;;;;;;33.42;19.10;;;;;;;13.34;52.31;99862.59;4484134;32;34455;-47
2021/10/12 07:33:21;;;;;;;27.80;18.55;;;;;;;13.22;52.44;99862.72;4484055;32;34458;-49
2021/10/12 07:35:56;;;;;;;29.42;19.12;;;;;;;13.30;52.74;99856.56;4483749;32;33919;-47
2021/10/12 07:38:24;;;;;;;30.55;18.25;;;;;;;13.37;52.57;99857.38;4484081;32;35144;-47
2021/10/12 07:40:51;;;;;;;31.00;19.08;;;;;;;13.48;52.28;99871.16;4469566;32;34697;-47
2021/10/12 07:43:19;;;;;;;28.73;17.85;;;;;;;13.38;52.59;99859.94;4483079;32;33243;-48
2021/10/12 07:45:48;;;;;;;26.58;17.83;;;;;;;13.53;52.17;99862.41;4483009;32;33832;-48
2021/10/12 07:48:17;;;;;;;26.17;17.80;;;;;;;13.44;51.86;99866.88;4483404;32;35170;-46
2021/10/12 07:50:46;;;;;;;25.67;16.73;;;;;;;13.48;52.54;99866.81;4468820;32;34507;-47
2021/10/12 07:53:13;;;;;;;23.98;15.18;;;;;;;13.31;52.08;99865.28;4483120;32;33450;-48
2021/10/12 07:55:48;;;;;;;24.87;15.00;;;;;;;13.16;51.71;99857.59;4482804;32;33953;-48
2021/10/12 07:58:16;;;;;;;24.23;15.20;;;;;;;13.25;51.76;99863.56;4482718;32;35823;-51
2021/10/12 08:00:43;;;;;;;25.85;15.35;;;;;;;13.35;51.99;99865.22;4482664;32;34425;-47
2021/10/12 08:03:12;;;;;;;23.73;15.13;;;;;;;13.44;51.50;99861.63;4483267;32;34281;-48
2021/10/12 08:05:40;;;;;;;23.75;14.48;;;;;;;13.42;50.24;99858.19;4482804;32;34291;-49
2021/10/12 08:08:07;;;;;;;23.40;13.80;;;;;;;13.68;50.40;99853.53;4482876;32;34655;-47
2021/10/12 08:10:37;;;;;;;21.67;14.18;;;;;;;13.69;50.04;99854.41;4482850;32;34893;-48
2021/10/12 08:13:13;;;;;;;22.98;14.35;;;;;;;13.50;50.93;99851.97;4483400;32;34384;-49
2021/10/12 08:15:43;;;;;;;23.85;13.77;;;;;;;13.45;50.43;99855.53;4470165;32;34046;-48
2021/10/12 08:18:11;;;;;;;23.17;14.55;;;;;;;13.77;50.22;99850.78;4482770;32;35103;-48
2021/10/12 08:20:39;;;;;;;22.87;15.20;;;;;;;13.91;50.35;99846.25;4482809;32;35091;-48
2021/10/12 08:23:06;;;;;;;24.85;14.85;;;;;;;14.06;49.67;99851.31;4483173;32;33414;-50
2021/10/12 08:25:34;;;;;;;23.35;14.55;;;;;;;14.34;49.40;99845.69;4482600;32;35099;-50
2021/10/12 08:28:01;;;;;;;21.40;12.40;;;;;;;14.43;49.19;99843.81;4482595;32;35081;-50
2021/10/12 08:30:29;;;;;;;20.67;12.45;;;;;;;14.43;48.64;99841.19;4482747;32;34139;-47
2021/10/12 08:32:57;;;;;;;21.77;12.45;;;;;;;14.79;48.00;99844.97;4483117;32;33684;-47
2021/10/12 08:35:25;;;;;;;17.42;11.73;;;;;;;14.60;48.16;99835.69;4483049;32;33986;-47
2021/10/12 08:37:53;;;;;;;19.70;11.77;;;;;;;14.63;47.62;99833.03;4483241;32;35009;-47
2021/10/12 08:40:20;;;;;;;20.85;10.90;;;;;;;14.61;46.64;99821.72;4482887;32;34377;-47
2021/10/12 08:42:52;;;;;;;15.82;9.40;;;;;;;14.80;46.51;99823.16;4483094;32;34630;-47
2021/10/12 08:45:21;;;;;;;16.80;9.68;;;;;;;14.69;45.97;99823.31;4483123;32;33920;-48
2021/10/12 08:47:50;;;;;;;16.42;10.50;;;;;;;14.66;46.53;99823.41;4468807;32;35777;-47
2021/10/12 08:50:21;;;;;;;15.80;9.20;;;;;;;14.79;46.46;99808.34;4483157;32;34201;-48
2021/10/12 08:52:49;;;;;;;15.97;9.27;;;;;;;14.87;46.25;99801.22;4483149;32;34612;-52
2021/10/12 08:55:16;;;;;;;15.07;9.30;;;;;;;15.06;46.01;99809.59;4468823;32;34696;-48
2021/10/12 08:57:44;;;;;;;16.12;9.25;;;;;;;15.08;45.94;99810.44;4482837;32;35840;-47
2021/10/12 09:00:14;;;;;;;15.43;9.02;;;;;;;15.20;45.68;99808.47;4482332;32;34226;-47
2021/10/12 09:05:51;;;;;;;13.77;9.10;;;;;;;15.42;45.79;99801.06;4468257;32;34065;-47
2021/10/12 09:08:27;;;;;;;12.73;8.60;;;;;;;15.44;44.66;99800.19;4482878;32;34718;-48
2021/10/12 09:10:56;;;;;;;14.57;8.45;;;;;;;15.45;45.49;99795.81;4482652;32;35043;-48
2021/10/12 09:13:24;;;;;;;13.40;7.78;;;;;;;15.54;44.42;99811.34;4484177;32;34286;-49
2021/10/12 09:16:03;;;;;;;13.62;6.95;;;;;;;15.30;44.55;99809.16;4483827;32;33780;-47
2021/10/12 09:18:46;;;;;;;12.27;6.50;;;;;;;15.38;44.39;99799.41;4483415;32;35601;-48
2021/10/12 09:21:25;;;;;;;11.70;6.22;;;;;;;15.25;45.24;99808.38;4469310;32;34236;-47
2021/10/12 09:24:19;;;;;;;11.52;5.87;;;;;;;15.34;44.46;99803.81;4483907;32;33707;-47
2021/10/12 09:27:02;;;;;;;10.10;6.00;;;;;;;15.35;43.81;99799.47;4469115;32;34101;-51
2021/10/12 09:29:33;;;;;;;13.15;6.00;;;;;;;15.25;43.99;99793.53;4483754;32;34786;-48
2021/10/12 09:32:03;;;;;;;;;;;;;;;15.35;44.20;99794.22;4483852;32;34596;-47
2021/10/12 09:34:34;;;;;;;9.35;5.70;;;;;;;15.43;44.53;99808.88;4483697;32;34328;-48
2021/10/12 09:37:04;;;;;;;9.98;5.32;;;;;;;15.29;44.08;99796.94;4482684;32;33825;-47
2021/10/12 09:39:42;;;;;;;12.52;5.78;;;;;;;15.24;43.64;99801.41;4470053;32;35719;-47
2021/10/12 09:42:12;;;;;;;12.02;5.80;;;;;;;15.12;44.74;99804.28;4483869;32;34503;-47
2021/10/12 09:44:55;;;;;;;13.05;6.50;;;;;;;15.12;44.28;99796.41;4483696;32;33459;-49
2021/10/12 09:47:22;;;;;;;8.80;5.70;;;;;;;15.22;44.97;99803.19;4483735;32;34635;-48
2021/10/12 09:50:09;;;;;;;10.75;5.90;;;;;;;15.19;45.61;99793.63;4483637;32;34984;-48
2021/10/12 09:52:41;;;;;;;8.68;5.40;;;;;;;15.50;43.80;99794.78;4483991;32;35185;-47
2021/10/12 09:55:09;;;;;;;11.18;5.40;;;;;;;15.57;43.89;99796.41;4457148;32;34268;-47
2021/10/12 09:57:36;;;;;;;9.35;5.68;;;;;;;15.62;43.65;99793.69;4483928;32;34653;-47
2021/10/12 10:00:05;;;;;;;12.30;5.70;;;;;;;15.41;44.78;99792.31;4483391;32;35060;-47
2021/10/12 10:02:38;;;;;;;9.30;5.43;;;;;;;15.61;44.58;99785.84;4483869;32;34411;-47
2021/10/12 10:05:08;;;;;;;12.40;6.40;;;;;;;15.78;44.53;99786.38;4469411;32;32842;-49
2021/10/12 10:07:40;;;;;;;10.88;5.40;;;;;;;15.96;43.51;99778.97;4469708;32;34764;-48
2021/10/12 10:10:08;;;;;;;8.57;5.15;;;;;;;15.87;42.71;99783.53;4469759;32;34844;-47
2021/10/12 10:12:36;;;;;;;10.82;5.90;;;;;;;16.04;42.83;99773.53;4483875;32;35110;-47
2021/10/12 10:15:03;;;;;;;9.18;6.20;;;;;;;16.02;43.66;99780.59;4483840;32;33250;-49
2021/10/12 10:17:31;;;;;;;11.52;6.47;;;;;;;16.21;42.60;99767.00;4483822;32;34568;-47
2021/10/12 10:20:03;;;;;;;10.48;5.32;;;;;;;16.10;42.88;99766.41;4469524;32;35808;-49
2021/10/12 10:22:42;;;;;;;;;;;;;;;16.36;43.12;99765.78;4483553;32;34198;-47
2021/10/12 10:25:40;;;;;;;11.23;5.72;;;;;;;16.20;42.86;99757.41;4483663;32;34939;-47
2021/10/12 10:28:25;;;;;;;11.88;5.60;;;;;;;16.19;43.05;99752.19;4476013;32;33826;-47
2021/10/12 10:30:54;;;;;;;8.80;5.28;;;;;;;16.21;42.95;99747.78;4483574;32;34876;-52
2021/10/12 10:33:34;;;;;;;7.93;5.62;;;;;;;16.18;43.42;99742.59;4483282;32;35241;-47
2021/10/12 10:36:05;;;;;;;9.05;5.90;;;;;;;16.24;42.29;99739.81;4483158;32;33227;-49
2021/10/12 10:38:34;;;;;;;12.27;5.68;;;;;;;16.17;42.94;99740.88;4482957;32;34908;-48
2021/10/12 10:41:04;;;;;;;6.25;4.43;;;;;;;16.26;42.97;99724.91;4483277;32;34788;-47
2021/10/12 10:43:51;;;;;;;9.60;3.97;;;;;;;16.35;42.02;99731.69;4483475;32;34418;-48
2021/10/12 10:46:34;;;;;;;11.32;3.87;;;;;;;16.55;40.78;99718.97;4483200;32;33454;-48
2021/10/12 10:49:20;;;;;;;5.72;3.45;;;;;;;16.56;41.15;99710.19;4484190;32;34056;-47
2021/10/12 10:51:50;;;;;;;6.15;3.55;;;;;;;16.73;40.63;99714.13;4485187;32;35758;-47
2021/10/12 10:54:44;;;;;;;4.35;3.17;;;;;;;16.83;40.66;99707.69;4485591;32;34190;-48
2021/10/12 10:57:19;;;;;;;5.72;2.87;;;;;;;16.92;40.05;99715.31;4485526;32;33207;-47
2021/10/12 11:00:05;;;;;;;6.15;3.10;;;;;;;16.81;38.77;99720.00;4485233;32;33657;-48
2021/10/12 11:02:33;;;;;;;5.03;3.25;;;;;;;16.83;39.47;99712.06;4485412;32;35681;-47
2021/10/12 11:05:01;;;;;;;5.80;2.90;;;;;;;16.82;39.68;99700.72;4485323;32;34513;-48
2021/10/12 11:07:29;;;;;;;7.20;3.00;;;;;;;16.60;39.64;99699.56;4485025;32;32927;-50
2021/10/12 11:09:57;;;;;;;5.07;3.03;;;;;;;16.63;39.96;99689.00;4485159;32;34751;-50
2021/10/12 11:12:28;;;;;;;7.43;3.25;;;;;;;16.99;39.34;99681.00;4484989;32;35814;-48
2021/10/12 11:15:06;;;;;;;6.35;3.08;;;;;;;16.95;40.17;99685.47;4485114;32;34392;-49
2021/10/12 11:17:36;;;;;;;8.13;3.50;;;;;;;17.01;39.48;99680.06;4485149;32;34521;-49
2021/10/12 11:20:14;;;;;;;6.12;3.28;;;;;;;17.11;39.11;99667.53;4484820;32;34049;-50
2021/10/12 11:22:43;;;;;;;8.63;3.50;;;;;;;17.22;38.70;99665.44;4485093;32;35844;-49
2021/10/12 11:25:12;;;;;;;6.32;4.00;;;;;;;17.19;39.30;99669.03;4485269;32;35011;-48
2021/10/12 11:27:41;;;;;;;10.57;4.18;;;;;;;17.03;40.97;99662.50;4485312;32;34325;-48
2021/10/12 11:30:11;;;;;;;6.95;4.43;;;;;;;17.14;41.44;99659.56;4485131;32;33683;-47
2021/10/12 11:32:39;;;;;;;7.97;5.20;;;;;;;17.36;41.16;99656.25;4470685;32;35764;-47
2021/10/12 11:35:11;;;;;;;10.80;6.85;;;;;;;17.50;40.94;99664.59;4484989;32;34308;-48
2021/10/12 11:37:52;;;;;;;11.93;6.45;;;;;;;17.40;41.46;99657.03;4484821;32;33504;-47